Terminal Aerodrome Forecast
Issued by NWS

Home | Current Version | Previous Version | Text Only | Print | Product List | Glossary On
Versions: 1 2 3 4 5 6 7 8 9 10 11 12 13 14 15 16 17 18
000
FTUS43 KLSX 301130
TAFSUS
TAF
KSUS 301130Z 3012/0112 34008KT P6SM SCT008 BKN012
     FM301900 33009KT P6SM VCSH BKN025
      TEMPO 3019/3023 5SM -SHRA
     FM010300 VRB04KT P6SM BKN015
     FM010700 VRB03KT P6SM BKN008=

USA.gov is the U.S. government's official web portal to all federal, state and local government web resources and services.